Time;durP1;ratioP1;P1;durP2;ratioP2;P2;SDS_P1;SDS_P2;PMS_P1;PMS_P2;Temp;Humidity;BMP_temperature;BMP_pressure;BME280_temperature;BME280_humidity;BME280_pressure;Samples;Min_cycle;Max_cycle;Signal;HPM_P1;HPM_P2
2022/01/07 00:02:57;;;;;;;4.78;1.75;;;4.30;97.40;;;;;;9188249;19;20034;-71
2022/01/07 00:06:07;;;;;;;3.40;1.50;;;4.30;97.40;;;;;;9189702;19;20011;-71
2022/01/07 00:09:12;;;;;;;2.03;1.15;;;4.30;97.40;;;;;;9186501;19;20048;-72
2022/01/07 00:12:21;;;;;;;1.13;0.90;;;4.30;97.30;;;;;;9189899;19;20014;-71
2022/01/07 00:15:29;;;;;;;1.60;1.05;;;4.30;97.30;;;;;;9189045;19;20019;-71
2022/01/07 00:18:34;;;;;;;2.40;1.23;;;4.30;97.30;;;;;;9190704;19;20045;-72
2022/01/07 00:21:39;;;;;;;3.88;1.40;;;4.40;97.40;;;;;;9190154;19;20026;-71
2022/01/07 00:24:45;;;;;;;2.67;1.20;;;4.40;97.40;;;;;;9189106;19;20022;-72
2022/01/07 00:27:50;;;;;;;5.07;1.20;;;4.40;97.40;;;;;;9190202;19;20010;-71
2022/01/07 00:30:58;;;;;;;6.60;1.30;;;4.40;97.40;;;;;;9185954;19;20086;-71
2022/01/07 00:34:03;;;;;;;4.25;1.30;;;4.40;97.40;;;;;;9185515;19;20011;-71
2022/01/07 00:37:08;;;;;;;2.45;1.25;;;4.40;97.40;;;;;;9185836;19;20015;-72
2022/01/07 00:40:16;;;;;;;4.70;1.05;;;4.40;97.40;;;;;;9186089;19;20011;-72
2022/01/07 00:43:21;;;;;;;5.05;1.40;;;4.40;97.40;;;;;;9184307;19;20037;-72
2022/01/07 00:46:29;;;;;;;3.78;1.30;;;4.40;97.30;;;;;;9185652;19;20023;-71
2022/01/07 00:49:34;;;;;;;2.17;1.00;;;4.40;97.30;;;;;;9187038;19;20082;-71
2022/01/07 00:52:40;;;;;;;3.75;1.05;;;4.40;97.30;;;;;;9184981;19;20476;-72
2022/01/07 00:55:45;;;;;;;3.50;1.25;;;4.40;97.30;;;;;;9183910;19;20495;-71
2022/01/07 00:58:50;;;;;;;2.05;0.95;;;4.40;97.30;;;;;;9184026;19;20332;-71
2022/01/07 01:01:57;;;;;;;3.47;1.00;;;4.40;97.30;;;;;;9185688;19;20030;-71
2022/01/07 01:05:21;;;;;;;2.40;0.93;;;4.40;97.30;;;;;;9184230;19;20021;-71
2022/01/07 01:08:30;;;;;;;2.63;1.10;;;4.40;97.30;;;;;;9183217;19;20022;-71
2022/01/07 01:11:36;;;;;;;2.47;0.98;;;4.40;97.30;;;;;;9184786;19;20026;-71
2022/01/07 01:14:42;;;;;;;1.40;0.80;;;4.40;97.30;;;;;;9185047;19;20015;-71
2022/01/07 01:17:49;;;;;;;3.28;1.02;;;4.50;97.40;;;;;;9185779;19;20010;-71
2022/01/07 01:20:54;;;;;;;2.88;1.02;;;4.50;97.30;;;;;;9183138;19;20015;-72
2022/01/07 01:24:03;;;;;;;2.83;1.23;;;4.50;97.30;;;;;;9184903;19;20018;-72
2022/01/07 01:27:08;;;;;;;2.58;1.20;;;4.50;97.30;;;;;;9185895;19;20472;-71
2022/01/07 01:30:17;;;;;;;3.78;1.40;;;4.50;97.30;;;;;;9185316;19;20349;-72
2022/01/07 01:33:27;;;;;;;3.08;1.35;;;4.50;97.30;;;;;;9185302;19;20018;-72
2022/01/07 01:36:48;;;;;;;2.83;1.33;;;4.50;97.30;;;;;;9186577;19;20023;-72
2022/01/07 01:39:53;;;;;;;1.42;0.93;;;4.50;97.30;;;;;;9185616;19;20086;-73
2022/01/07 01:43:00;;;;;;;2.00;0.93;;;4.50;97.30;;;;;;9184411;19;20049;-72
2022/01/07 01:46:06;;;;;;;2.88;1.30;;;4.50;97.30;;;;;;9185571;19;20085;-73
2022/01/07 01:49:13;;;;;;;2.17;1.05;;;4.40;97.30;;;;;;9186446;19;20015;-73
2022/01/07 01:52:24;;;;;;;2.70;1.00;;;4.40;97.20;;;;;;9185035;19;20343;-72
2022/01/07 01:55:34;;;;;;;2.92;1.25;;;4.40;97.20;;;;;;9182394;19;20011;-73
2022/01/07 01:58:39;;;;;;;4.43;1.50;;;4.40;97.20;;;;;;9184466;19;20018;-73
2022/01/07 02:01:44;;;;;;;2.30;0.98;;;4.40;97.30;;;;;;9180667;19;20018;-72
2022/01/07 02:04:56;;;;;;;2.63;1.45;;;4.40;97.30;;;;;;9184496;19;20010;-72
2022/01/07 02:08:02;;;;;;;2.55;1.17;;;4.40;97.30;;;;;;9183696;19;20014;-73
2022/01/07 02:11:13;;;;;;;1.63;1.10;;;4.40;97.30;;;;;;9180729;19;20018;-72
2022/01/07 02:14:19;;;;;;;3.08;1.40;;;4.40;97.20;;;;;;9181618;19;20010;-73
2022/01/07 02:17:29;;;;;;;1.88;1.27;;;4.40;97.20;;;;;;9180693;19;20021;-72
2022/01/07 02:20:39;;;;;;;2.60;1.15;;;4.40;97.30;;;;;;9182089;19;20014;-73
2022/01/07 02:23:44;;;;;;;3.03;1.40;;;4.30;97.20;;;;;;9179720;19;20014;-75
2022/01/07 02:26:54;;;;;;;2.83;1.30;;;4.30;97.20;;;;;;9182918;19;20040;-73
2022/01/07 02:30:02;;;;;;;3.38;1.30;;;4.30;97.20;;;;;;9182552;19;20018;-73
2022/01/07 02:33:16;;;;;;;3.72;1.42;;;4.30;97.20;;;;;;9180544;19;20082;-73
2022/01/07 02:36:24;;;;;;;1.85;1.00;;;4.30;97.20;;;;;;9183973;19;20341;-74
2022/01/07 02:39:39;;;;;;;2.78;1.30;;;4.30;97.30;;;;;;9182856;19;20014;-74
2022/01/07 02:42:49;;;;;;;3.45;1.27;;;4.30;97.30;;;;;;9182351;19;20789;-73
2022/01/07 02:45:54;;;;;;;2.58;1.30;;;4.20;97.30;;;;;;9183687;19;20014;-74
2022/01/07 02:48:59;;;;;;;3.03;1.33;;;4.20;97.20;;;;;;9183791;19;20049;-74
2022/01/07 02:52:07;;;;;;;3.17;1.40;;;4.30;97.30;;;;;;9185064;19;20326;-74
2022/01/07 02:55:13;;;;;;;2.80;1.40;;;4.20;97.20;;;;;;9179944;19;20006;-73
2022/01/07 02:58:18;;;;;;;3.83;1.33;;;4.20;97.30;;;;;;9180682;19;20010;-73
2022/01/07 03:01:23;;;;;;;2.78;1.23;;;4.20;97.20;;;;;;9180184;19;20021;-73
2022/01/07 03:04:29;;;;;;;2.53;1.30;;;4.20;97.20;;;;;;9180060;19;20011;-73
2022/01/07 03:07:37;;;;;;;1.27;1.00;;;4.20;97.20;;;;;;9179136;19;20030;-74
2022/01/07 03:10:42;;;;;;;2.22;1.33;;;4.10;97.20;;;;;;9182223;19;20017;-74
2022/01/07 03:13:47;;;;;;;2.10;1.30;;;4.10;97.20;;;;;;9181943;19;20035;-74
2022/01/07 03:16:52;;;;;;;2.72;1.50;;;4.10;97.20;;;;;;9181056;19;20014;-73
2022/01/07 03:19:57;;;;;;;1.90;1.33;;;4.10;97.20;;;;;;9182048;19;20368;-74
2022/01/07 03:23:05;;;;;;;1.98;1.38;;;4.00;97.20;;;;;;9180074;19;20082;-73
2022/01/07 03:26:11;;;;;;;2.53;1.38;;;4.00;97.20;;;;;;9179811;19;20045;-73
2022/01/07 03:29:16;;;;;;;2.42;1.40;;;4.00;97.30;;;;;;9181360;19;20382;-74
2022/01/07 03:32:21;;;;;;;4.00;1.38;;;4.00;97.60;;;;;;9182632;19;20491;-74
2022/01/07 03:35:28;;;;;;;1.55;1.25;;;4.00;97.30;;;;;;9181363;19;20010;-74
2022/01/07 03:38:35;;;;;;;2.38;1.20;;;4.00;97.30;;;;;;9181326;19;20022;-73
2022/01/07 03:41:40;;;;;;;2.58;1.40;;;4.00;97.30;;;;;;9182576;19;20026;-74
2022/01/07 03:44:45;;;;;;;2.05;1.30;;;4.00;97.30;;;;;;9187816;19;20028;-73
2022/01/07 03:47:51;;;;;;;3.85;1.45;;;4.00;97.40;;;;;;9190765;19;20010;-73
2022/01/07 03:50:56;;;;;;;2.35;1.10;;;4.00;97.40;;;;;;9186970;19;20812;-73
2022/01/07 03:54:04;;;;;;;1.70;1.10;;;4.00;97.40;;;;;;9183980;19;20022;-73
2022/01/07 03:57:09;;;;;;;3.30;1.58;;;4.00;97.40;;;;;;9192321;19;20007;-73
2022/01/07 04:00:17;;;;;;;3.40;1.05;;;4.00;97.40;;;;;;9186680;19;20045;-73
2022/01/07 04:03:23;;;;;;;2.67;1.60;;;4.00;97.40;;;;;;9187622;19;20010;-73
2022/01/07 04:06:28;;;;;;;2.13;1.15;;;4.00;97.40;;;;;;9186850;19;20472;-73
2022/01/07 04:09:35;;;;;;;2.75;1.30;;;4.00;97.40;;;;;;9185170;19;20013;-74
2022/01/07 04:12:41;;;;;;;2.17;1.10;;;4.00;97.40;;;;;;9188641;19;20472;-74
2022/01/07 04:15:49;;;;;;;2.63;1.40;;;4.00;97.40;;;;;;9187443;19;20472;-74
2022/01/07 04:18:54;;;;;;;3.13;1.20;;;4.00;97.40;;;;;;9186600;19;20018;-74
2022/01/07 04:21:59;;;;;;;2.30;1.38;;;4.00;97.40;;;;;;9185437;19;20026;-73
2022/01/07 04:25:12;;;;;;;3.25;1.40;;;4.00;97.40;;;;;;9184375;19;20022;-74
2022/01/07 04:28:17;;;;;;;2.60;1.20;;;4.00;97.50;;;;;;9185753;19;20019;-73
2022/01/07 04:31:22;;;;;;;1.83;1.20;;;4.00;97.50;;;;;;9185514;19;20019;-73
2022/01/07 04:34:27;;;;;;;3.35;1.02;;;4.00;97.50;;;;;;9187430;19;20052;-73
2022/01/07 04:37:32;;;;;;;2.17;1.15;;;4.00;97.50;;;;;;9188534;19;20011;-73
2022/01/07 04:40:40;;;;;;;1.30;1.13;;;4.00;97.50;;;;;;9185941;19;20029;-73
2022/01/07 04:43:45;;;;;;;2.05;0.90;;;4.00;97.50;;;;;;9184645;19;20011;-73
2022/01/07 04:46:50;;;;;;;2.47;1.02;;;4.00;97.50;;;;;;9186407;19;20425;-74
2022/01/07 04:49:59;;;;;;;1.60;0.90;;;4.00;97.50;;;;;;9188583;19;20487;-73
2022/01/07 04:53:05;;;;;;;2.05;1.10;;;4.00;97.70;;;;;;9184321;19;20019;-73
2022/01/07 04:56:16;;;;;;;1.95;1.15;;;4.00;97.50;;;;;;9186080;19;20082;-74
2022/01/07 04:59:26;;;;;;;1.27;0.80;;;4.00;97.50;;;;;;9186018;19;20074;-74
2022/01/07 05:02:34;;;;;;;0.90;0.90;;;4.00;97.50;;;;;;9188282;19;20018;-74
2022/01/07 05:06:08;;;;;;;3.45;1.35;;;4.00;97.50;;;;;;9184400;19;20018;-75
2022/01/07 05:09:16;;;;;;;2.17;1.10;;;4.00;97.50;;;;;;9185034;19;20021;-75
2022/01/07 05:12:24;;;;;;;2.20;1.00;;;4.00;97.50;;;;;;9186865;19;20010;-76
2022/01/07 05:15:29;;;;;;;1.20;0.95;;;4.00;97.50;;;;;;9187723;19;20018;-75
2022/01/07 05:18:34;;;;;;;2.45;1.10;;;4.00;97.50;;;;;;9186373;19;20094;-75
2022/01/07 05:21:48;;;;;;;2.88;0.90;;;4.00;97.50;;;;;;9186623;19;20017;-74
2022/01/07 05:24:54;;;;;;;1.42;0.80;;;4.00;97.50;;;;;;9184841;19;20018;-75
2022/01/07 05:28:05;;;;;;;2.20;1.10;;;4.00;97.50;;;;;;9187416;19;20018;-75
2022/01/07 05:31:11;;;;;;;1.75;1.02;;;4.00;97.50;;;;;;9185985;19;20043;-75
2022/01/07 05:34:18;;;;;;;1.60;0.80;;;4.00;97.50;;;;;;9186221;19;20364;-75
2022/01/07 05:37:28;;;;;;;2.42;0.95;;;4.00;97.50;;;;;;9183578;19;20024;-76
2022/01/07 05:40:48;;;;;;;1.52;0.88;;;4.00;97.50;;;;;;9185196;19;20018;-76
2022/01/07 05:44:04;;;;;;;2.00;0.93;;;4.00;97.50;;;;;;9184966;19;20022;-75
2022/01/07 05:47:19;;;;;;;0.82;0.63;;;4.00;97.60;;;;;;9185708;19;20514;-75
2022/01/07 05:50:26;;;;;;;2.50;0.90;;;4.00;97.50;;;;;;9184717;19;20052;-74
2022/01/07 05:53:33;;;;;;;0.45;0.45;;;4.00;97.50;;;;;;9181673;19;20673;-74
2022/01/07 05:56:49;;;;;;;1.45;0.90;;;4.00;97.50;;;;;;9184393;19;20022;-74
2022/01/07 06:00:01;;;;;;;0.75;0.57;;;4.00;97.50;;;;;;9181857;19;20022;-74
2022/01/07 06:03:22;;;;;;;1.08;0.63;;;4.00;97.50;;;;;;9185005;19;20018;-75
2022/01/07 06:06:30;;;;;;;1.30;0.77;;;4.00;97.60;;;;;;9182517;19;20070;-74
2022/01/07 06:09:39;;;;;;;1.17;0.85;;;4.00;97.50;;;;;;9181189;19;20018;-74
2022/01/07 06:12:45;;;;;;;0.95;0.65;;;4.00;97.60;;;;;;9181409;19;20057;-73
2022/01/07 06:15:57;;;;;;;1.30;0.60;;;4.00;97.50;;;;;;9183872;19;20014;-73
2022/01/07 06:19:17;;;;;;;1.52;0.70;;;4.00;97.50;;;;;;9183298;19;20028;-74
2022/01/07 06:22:24;;;;;;;1.17;0.73;;;4.00;97.50;;;;;;9182117;19;20044;-74
2022/01/07 06:25:35;;;;;;;1.63;0.70;;;4.00;97.60;;;;;;9180333;19;20022;-74
2022/01/07 06:28:49;;;;;;;1.90;0.68;;;4.00;97.50;;;;;;9180433;19;20082;-74
2022/01/07 06:31:59;;;;;;;1.05;0.70;;;4.00;97.50;;;;;;9179828;19;20622;-74
2022/01/07 06:35:11;;;;;;;1.75;0.75;;;4.00;97.60;;;;;;9180792;19;20479;-73
2022/01/07 06:38:17;;;;;;;1.73;0.80;;;4.00;97.50;;;;;;9184434;19;20011;-73
2022/01/07 06:41:25;;;;;;;1.08;0.70;;;4.00;97.60;;;;;;9181987;19;20368;-73
2022/01/07 06:44:32;;;;;;;2.08;0.65;;;4.00;97.60;;;;;;9179946;19;20019;-73
2022/01/07 06:47:41;;;;;;;1.33;0.70;;;4.00;97.60;;;;;;9179556;19;20435;-73
2022/01/07 06:50:48;;;;;;;1.27;0.85;;;4.00;97.60;;;;;;9179964;19;20101;-73
2022/01/07 06:53:59;;;;;;;0.95;0.82;;;4.00;97.60;;;;;;9178283;19;20078;-73
2022/01/07 06:57:08;;;;;;;1.15;0.60;;;4.00;97.60;;;;;;9181173;19;20011;-74
2022/01/07 07:00:15;;;;;;;1.55;0.90;;;4.00;97.60;;;;;;9178689;19;20045;-73
2022/01/07 07:03:40;;;;;;;1.02;0.68;;;4.00;97.60;;;;;;9180612;19;20011;-73
2022/01/07 07:06:54;;;;;;;2.45;0.93;;;4.00;97.60;;;;;;9181248;19;20039;-73
2022/01/07 07:10:05;;;;;;;3.10;1.10;;;4.10;97.60;;;;;;9183867;19;20014;-73
2022/01/07 07:13:14;;;;;;;1.40;0.80;;;4.10;97.60;;;;;;9179105;19;20010;-73
2022/01/07 07:16:35;;;;;;;1.58;0.80;;;4.10;97.70;;;;;;9179298;19;20019;-73
2022/01/07 07:19:57;;;;;;;1.20;0.77;;;4.10;97.70;;;;;;9191213;19;20019;-73
2022/01/07 07:23:02;;;;;;;2.53;0.73;;;4.10;97.70;;;;;;9190728;19;20019;-73
2022/01/07 07:26:24;;;;;;;2.08;0.90;;;4.10;97.70;;;;;;9188423;19;20011;-73
2022/01/07 07:29:36;;;;;;;1.83;0.90;;;4.20;97.70;;;;;;9189069;19;20338;-73
2022/01/07 07:32:47;;;;;;;1.35;1.15;;;4.20;97.70;;;;;;9189816;19;20014;-72
2022/01/07 07:39:20;;;;;;;2.88;1.00;;;4.20;97.70;;;;;;9185909;19;20018;-73
2022/01/07 07:42:26;;;;;;;2.75;0.90;;;4.20;97.70;;;;;;9188789;19;20014;-73
2022/01/07 07:45:36;;;;;;;1.05;0.63;;;4.30;97.80;;;;;;9185499;19;20395;-73
2022/01/07 07:48:42;;;;;;;1.67;0.82;;;4.30;97.80;;;;;;9189177;19;20021;-73
2022/01/07 07:51:51;;;;;;;2.20;1.13;;;4.30;97.80;;;;;;9188946;19;20022;-73
2022/01/07 07:54:57;;;;;;;1.13;0.93;;;4.30;97.80;;;;;;9184658;19;20015;-72
2022/01/07 07:58:02;;;;;;;2.63;0.93;;;4.40;97.80;;;;;;9189519;19;20018;-73
2022/01/07 08:01:07;;;;;;;1.02;0.80;;;4.40;97.80;;;;;;9188595;19;20661;-73
2022/01/07 08:04:15;;;;;;;2.35;0.90;;;4.40;97.80;;;;;;9187324;19;20034;-73
2022/01/07 08:07:23;;;;;;;1.13;0.95;;;4.40;97.80;;;;;;9184732;19;20011;-73
2022/01/07 08:10:28;;;;;;;2.95;1.00;;;4.50;97.90;;;;;;9188390;19;20023;-73
2022/01/07 08:15:58;;;;;;;1.05;0.90;;;4.50;98.10;;;;;;9185111;19;20010;-73
2022/01/07 08:16:55;;;;;;;2.00;0.90;;;4.50;97.90;;;;;;9185171;19;20017;-73
2022/01/07 08:20:01;;;;;;;2.83;1.25;;;4.60;97.90;;;;;;9188795;19;20039;-73
2022/01/07 08:23:09;;;;;;;1.85;1.02;;;4.60;97.90;;;;;;9188272;19;20437;-74
2022/01/07 08:26:17;;;;;;;2.13;1.00;;;4.60;97.90;;;;;;9186145;19;20018;-73
2022/01/07 08:29:25;;;;;;;2.63;1.00;;;4.60;97.90;;;;;;9183797;19;20018;-73
2022/01/07 08:35:52;;;;;;;1.98;1.00;;;4.70;97.90;;;;;;9186699;19;20062;-73
2022/01/07 08:39:01;;;;;;;2.25;1.25;;;4.70;97.90;;;;;;9188022;19;20025;-73
2022/01/07 08:42:07;;;;;;;1.80;1.00;;;4.70;97.90;;;;;;9187748;19;20340;-74
2022/01/07 08:45:14;;;;;;;3.08;1.27;;;4.80;98.00;;;;;;9187636;19;20011;-73
2022/01/07 08:48:22;;;;;;;2.17;1.40;;;4.80;98.00;;;;;;9187777;19;20022;-72
2022/01/07 08:51:28;;;;;;;2.80;1.13;;;4.80;98.00;;;;;;9188835;19;20009;-73
2022/01/07 08:54:36;;;;;;;1.35;0.98;;;4.90;98.00;;;;;;9183953;19;20014;-73
2022/01/07 08:57:41;;;;;;;2.88;1.20;;;4.90;98.00;;;;;;9184069;19;20014;-73
2022/01/07 09:00:48;;;;;;;1.67;0.98;;;4.90;98.00;;;;;;9183230;19;20022;-74
2022/01/07 09:03:56;;;;;;;2.22;1.10;;;4.90;98.00;;;;;;9182116;19;20044;-74
2022/01/07 09:07:05;;;;;;;2.17;1.20;;;5.00;98.00;;;;;;9179325;19;20382;-75
2022/01/07 09:10:14;;;;;;;1.73;1.10;;;5.00;98.00;;;;;;9182891;19;20377;-74
2022/01/07 09:13:25;;;;;;;3.35;1.30;;;5.00;98.00;;;;;;9181216;19;20021;-73
2022/01/07 09:16:34;;;;;;;1.58;1.10;;;5.10;98.00;;;;;;9181054;19;20021;-73
2022/01/07 09:19:41;;;;;;;1.65;1.02;;;5.10;98.00;;;;;;9181344;19;20041;-74
2022/01/07 09:22:47;;;;;;;2.22;1.38;;;5.10;98.00;;;;;;9183002;19;20018;-74
2022/01/07 09:26:00;;;;;;;2.95;1.20;;;5.20;98.00;;;;;;9180711;19;20095;-74
2022/01/07 09:29:12;;;;;;;2.75;1.35;;;5.20;98.30;;;;;;9181309;19;20048;-74
2022/01/07 09:32:24;;;;;;;;;;;5.20;98.00;;;;;;9181674;19;20007;-74
2022/01/07 09:35:36;;;;;;;3.08;1.50;;;5.20;98.00;;;;;;9180248;19;19919;-74
2022/01/07 09:38:53;;;;;;;1.95;1.10;;;5.30;98.10;;;;;;9180993;19;20468;-74
2022/01/07 09:42:05;;;;;;;2.05;1.17;;;5.30;98.10;;;;;;9182629;19;20492;-74
2022/01/07 09:45:11;;;;;;;4.03;1.30;;;5.30;98.10;;;;;;9180573;19;20010;-73
2022/01/07 09:48:16;;;;;;;2.28;1.08;;;5.40;98.20;;;;;;9182292;19;20018;-73
2022/01/07 09:51:22;;;;;;;1.92;1.10;;;5.40;98.20;;;;;;9179054;19;20025;-74
2022/01/07 09:54:27;;;;;;;2.33;1.02;;;5.50;98.20;;;;;;9172419;19;20875;-74
2022/01/07 09:57:35;;;;;;;1.10;1.00;;;5.50;98.20;;;;;;9181025;19;20012;-75
2022/01/07 10:00:42;;;;;;;1.92;1.13;;;5.60;98.20;;;;;;9180714;19;20018;-73
2022/01/07 10:03:48;;;;;;;1.45;1.10;;;5.60;98.20;;;;;;9181738;19;20043;-77
2022/01/07 10:07:12;;;;;;;1.73;0.90;;;5.60;98.20;;;;;;9180719;19;20014;-77
2022/01/07 10:10:19;;;;;;;2.50;1.10;;;5.70;98.20;;;;;;9183571;19;20468;-77
2022/01/07 10:13:30;;;;;;;1.98;1.10;;;5.80;98.20;;;;;;9182098;19;20019;-78
2022/01/07 10:16:49;;;;;;;1.23;0.95;;;5.80;98.20;;;;;;9181167;19;20472;-78
2022/01/07 10:20:00;;;;;;;1.92;1.02;;;5.80;98.20;;;;;;9182093;19;20025;-77
2022/01/07 10:23:09;;;;;;;1.52;0.70;;;5.90;98.20;;;;;;9181974;19;20017;-78
2022/01/07 10:26:22;;;;;;;2.95;0.93;;;5.90;98.10;;;;;;9182013;19;20044;-79
2022/01/07 10:29:33;;;;;;;1.58;0.85;;;5.90;98.10;;;;;;9182625;19;20488;-79
2022/01/07 10:32:41;;;;;;;1.73;1.02;;;6.00;98.10;;;;;;9180051;19;20116;-77
2022/01/07 10:35:46;;;;;;;2.05;0.90;;;6.00;98.10;;;;;;9177658;19;20010;-78
2022/01/07 10:38:54;;;;;;;1.65;0.98;;;6.00;98.10;;;;;;9181842;19;20036;-78
2022/01/07 10:42:07;;;;;;;1.48;0.82;;;6.00;98.10;;;;;;9182027;19;20029;-79
2022/01/07 10:45:20;;;;;;;2.78;1.05;;;6.10;98.10;;;;;;9180875;19;20484;-78
2022/01/07 10:48:38;;;;;;;1.52;0.88;;;6.10;98.10;;;;;;9180250;19;20029;-78
2022/01/07 10:51:59;;;;;;;1.90;0.88;;;6.10;98.10;;;;;;9187245;19;20056;-78
2022/01/07 10:55:18;;;;;;;1.88;0.98;;;6.20;98.10;;;;;;9188029;19;20014;-78
2022/01/07 10:58:28;;;;;;;1.30;0.70;;;6.20;98.10;;;;;;9190649;19;20037;-78
2022/01/07 11:01:46;;;;;;;1.20;1.05;;;6.20;98.10;;;;;;9190166;19;20010;-77
2022/01/07 11:04:56;;;;;;;1.93;0.90;;;6.20;98.10;;;;;;9191153;19;20026;-77
2022/01/07 11:08:02;;;;;;;1.67;0.82;;;6.30;98.10;;;;;;9190329;19;20349;-76
2022/01/07 11:11:08;;;;;;;2.47;0.80;;;6.30;98.10;;;;;;9189883;19;20021;-76
2022/01/07 11:14:15;;;;;;;1.83;1.00;;;6.30;98.10;;;;;;9191458;19;20014;-78
2022/01/07 11:17:23;;;;;;;1.80;1.02;;;6.40;98.10;;;;;;9191204;19;20354;-76
2022/01/07 11:20:28;;;;;;;1.70;0.90;;;6.40;98.10;;;;;;9191103;19;20014;-77
2022/01/07 11:23:37;;;;;;;3.95;1.05;;;6.40;98.10;;;;;;9190071;19;20360;-77
2022/01/07 11:27:00;;;;;;;3.25;1.15;;;6.50;98.10;;;;;;9188257;19;20104;-71
2022/01/07 11:30:15;;;;;;;2.53;1.02;;;6.50;98.10;;;;;;9190781;19;20014;-73
2022/01/07 11:33:22;;;;;;;;;;;6.50;98.10;;;;;;9190982;19;20018;-73
2022/01/07 11:36:37;;;;;;;1.92;0.80;;;6.50;98.10;;;;;;9190027;19;19922;-73
2022/01/07 11:39:43;;;;;;;1.60;0.82;;;6.60;98.20;;;;;;9190980;19;20011;-73
2022/01/07 11:42:49;;;;;;;3.08;1.10;;;6.60;98.20;;;;;;9190422;19;20022;-71
2022/01/07 11:45:55;;;;;;;1.00;0.70;;;6.60;98.20;;;;;;9188402;19;20018;-76
2022/01/07 11:49:05;;;;;;;1.67;1.00;;;6.70;98.20;;;;;;9186827;19;20015;-74
2022/01/07 11:52:36;;;;;;;2.17;1.30;;;6.60;98.10;;;;;;9169765;19;20074;-74
2022/01/07 11:55:42;;;;;;;1.15;0.85;;;6.70;98.20;;;;;;9148591;19;20338;-74
2022/01/07 11:58:51;;;;;;;2.33;0.90;;;6.70;98.20;;;;;;9176157;19;20010;-73
2022/01/07 12:02:03;;;;;;;1.75;1.05;;;6.70;98.20;;;;;;9181112;19;20022;-69
2022/01/07 12:05:38;;;;;;;2.05;0.90;;;6.80;98.10;;;;;;9180523;19;20086;-70
2022/01/07 12:09:06;;;;;;;;;;;6.80;98.10;;;;;;9183768;19;20743;-70
2022/01/07 12:12:17;;;;;;;1.77;0.80;;;6.90;98.20;;;;;;9188181;19;19918;-70
2022/01/07 12:15:22;;;;;;;2.05;0.95;;;6.90;98.30;;;;;;9183392;19;20048;-70
2022/01/07 12:18:33;;;;;;;1.48;0.57;;;6.90;98.20;;;;;;9184390;19;20014;-70
2022/01/07 12:21:39;;;;;;;3.30;0.95;;;6.90;98.10;;;;;;9183244;19;20014;-70
2022/01/07 12:24:47;;;;;;;1.48;0.75;;;7.00;98.20;;;;;;9185720;19;20018;-71
2022/01/07 12:28:02;;;;;;;2.35;1.00;;;7.00;98.10;;;;;;9182686;19;20016;-71
2022/01/07 12:31:08;;;;;;;3.20;0.77;;;7.00;98.10;;;;;;9184484;19;20031;-74
2022/01/07 12:34:14;;;;;;;0.85;0.73;;;7.10;98.10;;;;;;9183941;19;20014;-73
2022/01/07 12:37:26;;;;;;;1.60;0.90;;;7.10;98.10;;;;;;9185411;19;20027;-74
2022/01/07 12:40:33;;;;;;;1.75;0.73;;;7.10;98.10;;;;;;9182937;19;20047;-73
2022/01/07 12:43:38;;;;;;;2.65;1.00;;;7.20;98.10;;;;;;9183548;19;20022;-73
2022/01/07 12:46:51;;;;;;;2.40;1.10;;;7.20;98.10;;;;;;9184221;19;20116;-74
2022/01/07 12:50:02;;;;;;;1.75;0.80;;;7.20;98.30;;;;;;9185474;19;20010;-72
2022/01/07 12:53:10;;;;;;;2.17;0.90;;;7.20;98.00;;;;;;9182345;19;20025;-73
2022/01/07 12:56:29;;;;;;;3.17;0.90;;;7.30;98.10;;;;;;9184932;19;20030;-73
2022/01/07 12:59:34;;;;;;;1.58;0.98;;;7.30;98.00;;;;;;9183981;19;20018;-75
2022/01/07 13:02:41;;;;;;;1.67;0.75;;;7.30;98.00;;;;;;9184394;19;20476;-73
2022/01/07 13:05:48;;;;;;;1.77;0.77;;;7.40;98.00;;;;;;9185505;19;20021;-74
2022/01/07 13:08:54;;;;;;;1.88;0.77;;;7.30;98.00;;;;;;9182161;19;20371;-73
2022/01/07 13:12:01;;;;;;;1.05;0.50;;;7.40;97.90;;;;;;9182642;19;20022;-73
2022/01/07 13:15:08;;;;;;;2.15;0.50;;;7.40;97.90;;;;;;9181238;19;20022;-74
2022/01/07 13:18:21;;;;;;;0.95;0.38;;;7.40;97.80;;;;;;9183459;19;20026;-74
2022/01/07 13:21:26;;;;;;;1.50;0.50;;;7.40;97.80;;;;;;9185093;19;21346;-73
2022/01/07 13:24:32;;;;;;;1.10;0.40;;;7.30;97.70;;;;;;9184017;19;20041;-72
2022/01/07 13:27:44;;;;;;;2.85;0.68;;;7.30;97.70;;;;;;9184670;19;20010;-73
2022/01/07 13:30:49;;;;;;;1.42;0.35;;;7.30;97.60;;;;;;9182384;19;20026;-71
2022/01/07 13:33:55;;;;;;;1.52;0.63;;;7.30;97.50;;;;;;9184377;19;20010;-71
2022/01/07 13:37:10;;;;;;;1.93;0.50;;;7.20;97.40;;;;;;9184981;19;20007;-72
2022/01/07 13:40:17;;;;;;;0.28;0.28;;;7.10;97.40;;;;;;9176586;19;20677;-71
2022/01/07 13:43:25;;;;;;;2.25;0.50;;;7.10;97.30;;;;;;9181995;19;20025;-73
2022/01/07 13:46:32;;;;;;;1.33;0.70;;;7.00;97.30;;;;;;9182345;19;20006;-73
2022/01/07 13:49:37;;;;;;;1.80;0.60;;;7.00;97.30;;;;;;9183085;19;20018;-73
2022/01/07 13:52:43;;;;;;;1.58;0.63;;;6.90;97.20;;;;;;9184380;19;20022;-72
2022/01/07 13:55:49;;;;;;;1.67;0.65;;;6.90;97.20;;;;;;9180241;19;20030;-73
2022/01/07 13:59:02;;;;;;;1.52;0.75;;;6.80;97.20;;;;;;9182238;19;20006;-73
2022/01/07 14:02:08;;;;;;;1.55;0.60;;;6.80;97.20;;;;;;9179743;19;20010;-74
2022/01/07 14:05:15;;;;;;;1.98;0.70;;;6.70;97.20;;;;;;9180728;19;20018;-73
2022/01/07 14:08:23;;;;;;;1.80;0.98;;;6.70;97.20;;;;;;9180211;19;20021;-73
2022/01/07 14:11:27;;;;;;;1.02;0.60;;;6.70;97.20;;;;;;9179434;19;20019;-73
2022/01/07 14:14:42;;;;;;;2.78;1.00;;;6.60;97.30;;;;;;9179012;19;20467;-73
2022/01/07 14:18:11;;;;;;;1.50;0.60;;;6.60;97.30;;;;;;9177507;19;20023;-73
2022/01/07 14:21:21;;;;;;;1.95;1.00;;;6.50;97.30;;;;;;9180124;19;20014;-73
2022/01/07 14:24:28;;;;;;;3.88;0.93;;;6.50;97.40;;;;;;9177394;19;20022;-73
2022/01/07 14:27:34;;;;;;;2.70;0.80;;;6.50;97.40;;;;;;9158085;19;20007;-73
2022/01/07 14:30:46;;;;;;;3.78;0.93;;;6.50;97.50;;;;;;9174504;19;20851;-74
2022/01/07 14:33:53;;;;;;;2.20;0.60;;;6.50;97.50;;;;;;9174820;19;20019;-73
2022/01/07 14:36:58;;;;;;;3.97;0.75;;;6.50;97.50;;;;;;9178119;19;20030;-73
2022/01/07 14:40:05;;;;;;;1.48;0.82;;;6.50;97.50;;;;;;9180903;19;20018;-71
2022/01/07 14:43:15;;;;;;;2.58;0.90;;;6.50;97.60;;;;;;9176348;19;20025;-72
2022/01/07 14:46:24;;;;;;;2.45;0.90;;;6.50;97.60;;;;;;9175732;19;20015;-73
2022/01/07 14:49:30;;;;;;;4.05;0.70;;;6.50;97.60;;;;;;9179119;19;20240;-72
2022/01/07 14:52:35;;;;;;;2.17;0.50;;;6.50;97.60;;;;;;9171179;19;20503;-72
2022/01/07 14:55:43;;;;;;;1.52;0.75;;;6.50;97.50;;;;;;9171916;19;20015;-71
2022/01/07 14:58:48;;;;;;;3.33;0.82;;;6.50;97.50;;;;;;9175117;19;20598;-73
2022/01/07 15:01:56;;;;;;;1.13;0.65;;;6.50;97.50;;;;;;9175757;19;20029;-73
2022/01/07 15:05:01;;;;;;;3.55;1.00;;;6.50;97.50;;;;;;9172502;19;20019;-72
2022/01/07 15:08:07;;;;;;;3.05;0.70;;;6.50;97.50;;;;;;9171843;19;20535;-72
2022/01/07 15:11:13;;;;;;;0.57;0.40;;;6.40;97.40;;;;;;9178182;19;20021;-72
2022/01/07 15:14:19;;;;;;;0.65;0.30;;;6.40;97.40;;;;;;9176123;19;20026;-72
2022/01/07 15:17:27;;;;;;;0.85;0.38;;;6.40;97.40;;;;;;9175614;19;20019;-72
2022/01/07 15:20:52;;;;;;;0.57;0.30;;;6.30;97.30;;;;;;9178439;19;20015;-72
2022/01/07 15:24:00;;;;;;;1.65;0.38;;;6.30;97.40;;;;;;9174446;19;20483;-72
2022/01/07 15:27:06;;;;;;;0.82;0.50;;;6.30;97.40;;;;;;9175177;19;20014;-73
2022/01/07 15:30:12;;;;;;;0.98;0.40;;;6.30;97.40;;;;;;9177197;19;20011;-72
2022/01/07 15:33:22;;;;;;;0.38;0.30;;;6.30;97.30;;;;;;9177066;19;20072;-72
2022/01/07 15:36:28;;;;;;;0.75;0.38;;;6.30;97.60;;;;;;9175982;19;20026;-71
2022/01/07 15:39:33;;;;;;;1.02;0.30;;;6.20;97.20;;;;;;9183905;19;20022;-72
2022/01/07 15:42:38;;;;;;;0.30;0.28;;;6.20;97.20;;;;;;9184230;19;20018;-71
2022/01/07 15:45:43;;;;;;;1.33;0.45;;;6.20;97.20;;;;;;9186275;19;20027;-72
2022/01/07 15:48:51;;;;;;;0.50;0.20;;;6.10;97.20;;;;;;9183853;19;20057;-73
2022/01/07 15:52:01;;;;;;;1.53;0.53;;;6.00;97.10;;;;;;9182123;19;20011;-72
2022/01/07 15:55:15;;;;;;;3.70;0.98;;;6.00;97.10;;;;;;9180420;19;20601;-72
2022/01/07 15:58:20;;;;;;;0.10;0.00;;;6.00;97.10;;;;;;9182510;19;21576;-72
2022/01/07 16:01:25;;;;;;;0.45;0.35;;;5.90;97.10;;;;;;9181486;19;20019;-72
2022/01/07 16:04:33;;;;;;;0.43;0.00;;;5.90;97.10;;;;;;9179872;19;20011;-73
2022/01/07 16:07:38;;;;;;;0.90;0.20;;;5.80;97.10;;;;;;9183258;19;20018;-73
2022/01/07 16:10:44;;;;;;;1.50;0.28;;;5.80;97.10;;;;;;9180773;19;20049;-72
2022/01/07 16:13:49;;;;;;;0.40;0.10;;;5.80;97.00;;;;;;9183446;19;20360;-72
2022/01/07 16:16:54;;;;;;;0.52;0.10;;;5.70;97.00;;;;;;9180988;19;20423;-72
2022/01/07 16:20:01;;;;;;;0.40;0.20;;;5.70;97.00;;;;;;9185359;19;20677;-72
2022/01/07 16:23:11;;;;;;;0.50;0.17;;;5.70;97.00;;;;;;9186475;19;20014;-72
2022/01/07 16:26:16;;;;;;;0.45;0.10;;;5.70;97.10;;;;;;9182415;19;20011;-72
2022/01/07 16:29:23;;;;;;;0.17;0.10;;;5.60;97.00;;;;;;9182954;19;20014;-71
2022/01/07 16:32:28;;;;;;;0.73;0.15;;;5.60;97.00;;;;;;9183610;19;20049;-72
2022/01/07 16:35:36;;;;;;;0.17;0.10;;;5.60;97.00;;;;;;9181582;19;20014;-73
2022/01/07 16:38:41;;;;;;;1.35;0.30;;;5.60;97.00;;;;;;9179656;19;20017;-72
2022/01/07 16:41:46;;;;;;;0.40;0.10;;;5.50;97.00;;;;;;9179733;19;20028;-72
2022/01/07 16:44:51;;;;;;;0.68;0.20;;;5.50;97.00;;;;;;9180248;19;20020;-72